Elkton, Colorado
Current Conditions -  °F | °C
As of 9:56 AM on Sunday 23 Nov 2014 (Local Time) from KCWN Reporting Station
Broken Clouds Broken Clouds  
Wind Chill: 20°   Ceiling: 10000
Heat Index: 30°   Visibility: 10mi
Dew Point: 20°   Wind: 13mph
Humidity: 67%   Direction: 340°NNW
Pressure: 29.74"   Gusts: 21mph
Location:  38.6816°N, 105.071°W
Report Text: KCWN 231656Z AUTO 34011G18KT 10SM SCT044 BKN100 M01/M07 A2974 RMK AO2 PK WND 36028/06 SLP070 T10111066
Loading
Personal Weather Stations






























Interactive Weather Map New forecast layout! Learn more

10-Day Weather Forecast

Advertisements
Track Severe Weather on mobile